KPHF Airport Information

Runway Information
Runway 02 Length 6526 ft width 150 ft
Elevation 37 ft Threshold 0 ft Heading 13
Runway 20 Length 6526 ft Width 150 ft
Elevation 43 ft Threshold 0 ft Heading 193
Runway 07 Length 8003 ft width 150 ft
Elevation 37 ft Threshold 0 ft Heading 58
Runway 25 Length 8003 ft Width 150 ft
Elevation 39 ft Threshold 0 ft Heading 238
Airport Frequencies
Type APP Name NORFOLK AP Frequency 125.7 MHZ
Type ATIS Name ATIS Frequency 128.65 MHZ
Type CLD Name CLNC DEL Frequency 121.65 MHZ
Type CTAF Name CTAF Frequency 118.7 MHZ
Type DEP Name NORFOLK DE Frequency 124.9 MHZ
Type GND Name GND Frequency 121.9 MHZ
Type RDO Name LEESBURG R Frequency 122.65 MHZ
Type TWR Name TWR Frequency 124.9 MHZ
Type UNIC Name UNICOM Frequency 122.95 MHZ
Airport Navaids
Type NDB Name Henry Frequency 375 KHZ
Airport Weather Information & NOTAM
ADDS - METARS form results

(1442 UTC 07 August 2020)
Data provider http://aviationweather.gov/metar/data/
 
METAR text: KPHF 071435Z 00000KT 10SM BKN016 OVC040 27/22 A3011 RMK AO2 T02720222
Conditions at: KPHF (NEWPORT NEWS , VA, US) observed 1435 UTC 07 August 2020
Temperature: 27.2°C (81°F)
Dewpoint: 22.2°C (72°F) [RH = 74%]
Pressure (altimeter): 30.11 inches Hg (1019.7 mb)
Winds: calm
Visibility: 10 or more miles (16+ km)
Ceiling: 1600 feet AGL
Clouds: broken clouds at 1600 feet AGL
overcast cloud deck at 4000 feet AGL
Weather: no significant weather observed at this time

METAR text: KPHF 071354Z 05004KT 10SM FEW027 OVC039 27/22 A3010 RMK AO2 SLP192 T02670222
Conditions at: KPHF (NEWPORT NEWS , VA, US) observed 1354 UTC 07 August 2020
Temperature: 26.7°C (80°F)
Dewpoint: 22.2°C (72°F) [RH = 76%]
Pressure (altimeter): 30.10 inches Hg (1019.4 mb)
[Sea-level pressure: 1019.2 mb]
Winds: from the NE (50 degrees) at 5 MPH (4 knots; 2.1 m/s)
Visibility: 10 or more miles (16+ km)
Ceiling: 3900 feet AGL
Clouds: few clouds at 2700 feet AGL
overcast cloud deck at 3900 feet AGL
Weather: no significant weather observed at this time

METAR text: KPHF 071347Z 00000KT 10SM SCT027 OVC039 27/22 A3010 RMK AO2 T02670222
Conditions at: KPHF (NEWPORT NEWS , VA, US) observed 1347 UTC 07 August 2020
Temperature: 26.7°C (80°F)
Dewpoint: 22.2°C (72°F) [RH = 76%]
Pressure (altimeter): 30.10 inches Hg (1019.4 mb)
Winds: calm
Visibility: 10 or more miles (16+ km)
Ceiling: 3900 feet AGL
Clouds: scattered clouds at 2700 feet AGL
overcast cloud deck at 3900 feet AGL
Weather: no significant weather observed at this time

Forecast for: KPHF (NEWPORT NEWS , VA, US)
Text: KPHF 071301Z 0713/0812 VRB03KT P6SM OVC030
Forecast period: 1300 to 1600 UTC 07 August 2020
Forecast type: FROM: standard forecast or significant change
Winds: variable direction winds at 3 MPH (3 knots; 1.5 m/s)
Visibility: 6 or more miles (10+ km)
Ceiling: 3000 feet AGL
Clouds: overcast cloud deck at 3000 feet AGL
Weather: no significant weather forecast for this period
Text: FM071600 VRB03KT P6SM BKN035
Forecast period: 1600 to 2100 UTC 07 August 2020
Forecast type: FROM: standard forecast or significant change
Winds: variable direction winds at 3 MPH (3 knots; 1.5 m/s)
Visibility: 6 or more miles (10+ km)
Ceiling: 3500 feet AGL
Clouds: broken clouds at 3500 feet AGL
Weather: no significant weather forecast for this period
Text: FM072100 16005KT P6SM VCTS BKN050CB
Forecast period: 2100 UTC 07 August 2020 to 1000 UTC 08 August 2020
Forecast type: FROM: standard forecast or significant change
Winds: from the SSE (160 degrees) at 6 MPH (5 knots; 2.6 m/s)
Visibility: 6 or more miles (10+ km)
Ceiling: 5000 feet AGL
Clouds: broken clouds at 5000 feet AGL
Weather: VCTS  (thunderstorm in vicinity)
Text: FM081000 VRB04KT P6SM BKN050
Forecast period: 1000 to 1200 UTC 08 August 2020
Forecast type: FROM: standard forecast or significant change
Winds: variable direction winds at 5 MPH (4 knots; 2.1 m/s)
Visibility: 6 or more miles (10+ km)
Ceiling: 5000 feet AGL
Clouds: broken clouds at 5000 feet AGL
Weather: no significant weather forecast for this period